nws-alerts: Checking more than four warning/county codes can delay the loading of your pages. You should use a cron job to get the data.
EllijayWeather Historical Data
Daily Summary for February 14, 2020 Units:  English    Metric   Both
Daily Weekly Monthly Yearly
  High: Low: Average:
Temperature: 50.0 °F 28.0 °F 38.2 °F
Dew Point: 34.0 °F 20.0 °F 27.7 °F
Humidity: 89% 40% 68%
Wind Speed: 12mph 0mph 3mph
Wind Gust: 12mph - -
Wind- - West
Pressure: 30.5 in 30.2 in -
Precipitation: 0.000 in    
 
 
Tabular Data for February 14, 2020
Time Temperature Dew Point Pressure Wind Wind Speed Wind Gust Humidity Rainfall Rate (Hourly)
00:04 37.0 °F 32.0 °F 30.2 in NW 3 mph 8 mph 82% 0.000 in
00:09 37.0 °F 32.0 °F 30.2 in WNW 2 mph 8 mph 81% 0.000 in
00:14 37.0 °F 32.0 °F 30.2 in Calm   4 mph 82% 0.000 in
00:19 37.0 °F 32.0 °F 30.2 in NE 3 mph 6 mph 82% 0.000 in
00:24 37.0 °F 32.0 °F 30.2 in North 2 mph 6 mph 82% 0.000 in
00:29 37.0 °F 32.0 °F 30.2 in NW 1 mph 6 mph 83% 0.000 in
00:34 37.0 °F 32.0 °F 30.2 in Calm   5 mph 83% 0.000 in
00:39 37.0 °F 32.0 °F 30.2 in North 3 mph 5 mph 83% 0.000 in
00:44 37.0 °F 32.0 °F 30.2 in NNW 7 mph 7 mph 82% 0.000 in
00:49 37.0 °F 32.0 °F 30.2 in NNW 5 mph 7 mph 82% 0.000 in
00:54 37.0 °F 32.0 °F 30.2 in North 1 mph 3 mph 83% 0.000 in
00:59 36.0 °F 32.0 °F 30.2 in North 2 mph 3 mph 83% 0.000 in
01:04 36.0 °F 32.0 °F 30.2 in Calm   3 mph 83% 0.000 in
01:09 36.0 °F 32.0 °F 30.2 in NNW 1 mph 2 mph 83% 0.000 in
01:14 36.0 °F 32.0 °F 30.2 in NNW 1 mph 2 mph 83% 0.000 in
01:19 36.0 °F 32.0 °F 30.3 in NW 3 mph 4 mph 84% 0.000 in
01:24 36.0 °F 31.0 °F 30.2 in WNW 4 mph 5 mph 83% 0.000 in
01:29 36.0 °F 32.0 °F 30.2 in NW 4 mph 7 mph 84% 0.000 in
01:34 36.0 °F 31.0 °F 30.2 in North 2 mph 7 mph 83% 0.000 in
01:39 36.0 °F 32.0 °F 30.2 in North 1 mph 5 mph 84% 0.000 in
01:44 36.0 °F 31.0 °F 30.3 in NNE 5 mph 5 mph 83% 0.000 in
01:49 36.0 °F 31.0 °F 30.3 in NNW 1 mph 4 mph 82% 0.000 in
01:54 36.0 °F 31.0 °F 30.2 in North 1 mph 11 mph 82% 0.000 in
01:59 36.0 °F 31.0 °F 30.3 in NW 5 mph 6 mph 81% 0.000 in
02:04 36.0 °F 31.0 °F 30.3 in NNW 6 mph 7 mph 81% 0.000 in
02:09 36.0 °F 30.0 °F 30.3 in WNW 3 mph 7 mph 80% 0.000 in
02:14 36.0 °F 31.0 °F 30.3 in NNW 4 mph 8 mph 81% 0.000 in
02:19 36.0 °F 30.0 °F 30.3 in North 2 mph 7 mph 80% 0.000 in
02:24 36.0 °F 31.0 °F 30.3 in North 3 mph 7 mph 81% 0.000 in
02:29 36.0 °F 31.0 °F 30.3 in North 3 mph 7 mph 81% 0.000 in
02:34 36.0 °F 31.0 °F 30.3 in NNW 4 mph 5 mph 82% 0.000 in
02:39 36.0 °F 31.0 °F 30.3 in WNW 4 mph 7 mph 81% 0.000 in
02:44 36.0 °F 31.0 °F 30.3 in NW 2 mph 7 mph 81% 0.000 in
02:49 36.0 °F 30.0 °F 30.3 in NW 4 mph 5 mph 80% 0.000 in
02:54 36.0 °F 30.0 °F 30.3 in North 7 mph 9 mph 80% 0.000 in
02:59 36.0 °F 30.0 °F 30.3 in NNW 4 mph 9 mph 80% 0.000 in
03:04 36.0 °F 30.0 °F 30.3 in North 2 mph 6 mph 80% 0.000 in
03:09 36.0 °F 30.0 °F 30.3 in NW 6 mph 9 mph 80% 0.000 in
03:14 36.0 °F 30.0 °F 30.3 in NW 3 mph 6 mph 80% 0.000 in
03:19 36.0 °F 30.0 °F 30.3 in NNW 2 mph 7 mph 80% 0.000 in
03:24 36.0 °F 30.0 °F 30.3 in NNW 6 mph 7 mph 80% 0.000 in
03:29 36.0 °F 30.0 °F 30.3 in NW 12 mph 12 mph 80% 0.000 in
03:34 35.0 °F 30.0 °F 30.3 in WNW 5 mph 8 mph 80% 0.000 in
03:39 35.0 °F 30.0 °F 30.3 in NW 3 mph 4 mph 80% 0.000 in
03:44 35.0 °F 30.0 °F 30.3 in NNE 2 mph 3 mph 79% 0.000 in
03:49 35.0 °F 30.0 °F 30.3 in NNW 2 mph 3 mph 80% 0.000 in
03:54 35.0 °F 30.0 °F 30.3 in WNW 2 mph 6 mph 81% 0.000 in
03:59 35.0 °F 30.0 °F 30.3 in NNW 5 mph 6 mph 80% 0.000 in
04:04 35.0 °F 30.0 °F 30.3 in NNW 4 mph 5 mph 80% 0.000 in
04:09 35.0 °F 29.0 °F 30.3 in NW 5 mph 7 mph 80% 0.000 in
04:14 35.0 °F 29.0 °F 30.3 in NNW 4 mph 7 mph 81% 0.000 in
04:19 35.0 °F 29.0 °F 30.3 in NNE 2 mph 7 mph 81% 0.000 in
04:24 35.0 °F 29.0 °F 30.3 in NW 5 mph 7 mph 81% 0.000 in
04:29 34.0 °F 29.0 °F 30.3 in NW 3 mph 7 mph 81% 0.000 in
04:34 34.0 °F 30.0 °F 30.3 in NNE 1 mph 1 mph 82% 0.000 in
04:39 34.0 °F 30.0 °F 30.3 in Calm   1 mph 83% 0.000 in
04:44 34.0 °F 29.0 °F 30.3 in NW 2 mph 3 mph 83% 0.000 in
04:49 34.0 °F 29.0 °F 30.3 in NW 1 mph 2 mph 83% 0.000 in
04:54 34.0 °F 31.0 °F 30.3 in Calm   2 mph 89% 0.000 in
04:59 34.0 °F 29.0 °F 30.3 in NW 3 mph 5 mph 84% 0.000 in
05:04 34.0 °F 30.0 °F 30.3 in WNW 3 mph 3 mph 85% 0.000 in
05:09 33.0 °F 30.0 °F 30.3 in NW 4 mph 4 mph 85% 0.000 in
05:14 33.0 °F 29.0 °F 30.3 in North 3 mph 4 mph 84% 0.000 in
05:19 33.0 °F 29.0 °F 30.3 in NW 3 mph 5 mph 85% 0.000 in
05:24 33.0 °F 29.0 °F 30.3 in NW 1 mph 5 mph 85% 0.000 in
05:29 33.0 °F 29.0 °F 30.3 in NNW 4 mph 6 mph 85% 0.000 in
05:34 33.0 °F 29.0 °F 30.3 in North 4 mph 6 mph 84% 0.000 in
05:39 33.0 °F 29.0 °F 30.3 in NNE 6 mph 6 mph 85% 0.000 in
05:44 33.0 °F 29.0 °F 30.3 in NNW 1 mph 3 mph 85% 0.000 in
05:49 33.0 °F 29.0 °F 30.3 in NW 5 mph 6 mph 85% 0.000 in
05:54 33.0 °F 29.0 °F 30.3 in NNW 1 mph 4 mph 85% 0.000 in
05:59 33.0 °F 29.0 °F 30.3 in NNW 1 mph 4 mph 85% 0.000 in
06:04 33.0 °F 29.0 °F 30.3 in NW 4 mph 6 mph 85% 0.000 in
06:09 33.0 °F 29.0 °F 30.3 in North 3 mph 5 mph 86% 0.000 in
06:14 33.0 °F 29.0 °F 30.3 in NW 4 mph 5 mph 86% 0.000 in
06:19 33.0 °F 29.0 °F 30.3 in NNW 4 mph 6 mph 86% 0.000 in
06:24 33.0 °F 29.0 °F 30.3 in NNW 5 mph 6 mph 87% 0.000 in
06:29 33.0 °F 29.0 °F 30.3 in NW 2 mph 5 mph 87% 0.000 in
06:34 33.0 °F 29.0 °F 30.3 in NW 3 mph 5 mph 86% 0.000 in
06:39 32.0 °F 29.0 °F 30.3 in NW 5 mph 6 mph 86% 0.000 in
06:44 32.0 °F 29.0 °F 30.3 in WNW 3 mph 3 mph 87% 0.000 in
06:49 32.0 °F 29.0 °F 30.3 in NW 3 mph 4 mph 87% 0.000 in
06:54 32.0 °F 29.0 °F 30.3 in NW 2 mph 2 mph 88% 0.000 in
06:59 32.0 °F 29.0 °F 30.3 in Calm   3 mph 88% 0.000 in
07:04 32.0 °F 29.0 °F 30.3 in NNW 1 mph 2 mph 88% 0.000 in
07:09 32.0 °F 29.0 °F 30.3 in NNW 1 mph 2 mph 88% 0.000 in
07:14 32.0 °F 29.0 °F 30.3 in NNW 1 mph 1 mph 88% 0.000 in
07:19 32.0 °F 29.0 °F 30.3 in NNW 2 mph 2 mph 89% 0.000 in
07:24 32.0 °F 29.0 °F 30.3 in NNW 2 mph 3 mph 89% 0.000 in
07:29 32.0 °F 28.0 °F 30.3 in NW 2 mph 2 mph 88% 0.000 in
07:34 32.0 °F 29.0 °F 30.4 in NW 5 mph 7 mph 89% 0.000 in
07:39 32.0 °F 29.0 °F 30.4 in NW 5 mph 7 mph 89% 0.000 in
07:44 32.0 °F 29.0 °F 30.4 in NW 4 mph 6 mph 89% 0.000 in
07:49 32.0 °F 29.0 °F 30.4 in NNW 3 mph 5 mph 88% 0.000 in
07:54 32.0 °F 29.0 °F 30.4 in NW 3 mph 3 mph 88% 0.000 in
07:59 32.0 °F 29.0 °F 30.4 in NW 3 mph 5 mph 88% 0.000 in
08:04 32.0 °F 29.0 °F 30.4 in NW 2 mph 4 mph 88% 0.000 in
08:09 32.0 °F 29.0 °F 30.4 in NW 3 mph 4 mph 88% 0.000 in
08:14 32.0 °F 29.0 °F 30.4 in WNW 2 mph 6 mph 88% 0.000 in
08:19 32.0 °F 29.0 °F 30.4 in WNW 3 mph 3 mph 88% 0.000 in
08:24 32.0 °F 30.0 °F 30.4 in NW 1 mph 3 mph 89% 0.000 in
08:29 33.0 °F 29.0 °F 30.4 in NW 3 mph 3 mph 88% 0.000 in
08:34 33.0 °F 30.0 °F 30.4 in NW 1 mph 4 mph 88% 0.000 in
08:39 33.0 °F 29.0 °F 30.4 in NW 3 mph 5 mph 87% 0.000 in
08:44 33.0 °F 29.0 °F 30.4 in NW 2 mph 4 mph 86% 0.000 in
08:49 34.0 °F 29.0 °F 30.4 in NE 5 mph 6 mph 84% 0.000 in
08:54 34.0 °F 29.0 °F 30.4 in NW 7 mph 9 mph 84% 0.000 in
08:59 34.0 °F 30.0 °F 30.4 in NW 3 mph 4 mph 84% 0.000 in
09:04 34.0 °F 29.0 °F 30.4 in NW 3 mph 6 mph 82% 0.000 in
09:09 34.0 °F 30.0 °F 30.4 in NW 5 mph 5 mph 83% 0.000 in
09:14 35.0 °F 30.0 °F 30.4 in NNW 3 mph 4 mph 83% 0.000 in
09:19 35.0 °F 30.0 °F 30.4 in North 4 mph 5 mph 81% 0.000 in
09:24 35.0 °F 29.0 °F 30.4 in North 4 mph 8 mph 80% 0.000 in
09:29 35.0 °F 29.0 °F 30.4 in NW 2 mph 8 mph 79% 0.000 in
09:34 35.0 °F 29.0 °F 30.4 in NNE 4 mph 4 mph 79% 0.000 in
09:39 35.0 °F 29.0 °F 30.4 in NW 4 mph 7 mph 78% 0.000 in
09:44 36.0 °F 29.0 °F 30.4 in NNW 6 mph 6 mph 77% 0.000 in
09:49 36.0 °F 29.0 °F 30.4 in NNW 5 mph 9 mph 75% 0.000 in
09:54 36.0 °F 29.0 °F 30.4 in North 3 mph 9 mph 75% 0.000 in
09:59 37.0 °F 30.0 °F 30.4 in NNW 5 mph 9 mph 75% 0.000 in
10:04 37.0 °F 30.0 °F 30.4 in NW 4 mph 4 mph 75% 0.000 in
10:09 38.0 °F 29.0 °F 30.4 in NW 5 mph 7 mph 72% 0.000 in
10:14 38.0 °F 29.0 °F 30.4 in NW 7 mph 8 mph 71% 0.000 in
10:19 38.0 °F 28.0 °F 30.4 in NNW 4 mph 10 mph 68% 0.000 in
10:24 38.0 °F 29.0 °F 30.4 in WNW 3 mph 7 mph 70% 0.000 in
10:29 39.0 °F 29.0 °F 30.4 in NNW 3 mph 7 mph 68% 0.000 in
10:34 39.0 °F 29.0 °F 30.4 in WNW 5 mph 7 mph 67% 0.000 in
10:39 40.0 °F 29.0 °F 30.4 in NNW 5 mph 9 mph 66% 0.000 in
10:44 40.0 °F 29.0 °F 30.4 in WNW 3 mph 4 mph 65% 0.000 in
10:49 40.0 °F 29.0 °F 30.4 in WNW 5 mph 5 mph 65% 0.000 in
10:54 39.0 °F 29.0 °F 30.4 in NNE 5 mph 5 mph 66% 0.000 in
10:59 40.0 °F 30.0 °F 30.4 in NNW 7 mph 7 mph 67% 0.000 in
11:04 40.0 °F 28.0 °F 30.4 in NNW 7 mph 7 mph 64% 0.000 in
11:09 40.0 °F 29.0 °F 30.4 in NW 3 mph 4 mph 66% 0.000 in
11:14 40.0 °F 29.0 °F 30.4 in North 3 mph 6 mph 65% 0.000 in
11:19 40.0 °F 30.0 °F 30.4 in North 2 mph 5 mph 67% 0.000 in
11:24 40.0 °F 31.0 °F 30.4 in NE 4 mph 4 mph 70% 0.000 in
11:29 40.0 °F 30.0 °F 30.4 in North 6 mph 6 mph 66% 0.000 in
11:34 41.0 °F 30.0 °F 30.4 in NW 3 mph 6 mph 65% 0.000 in
11:39 41.0 °F 32.0 °F 30.4 in WNW 2 mph 3 mph 69% 0.000 in
11:44 41.0 °F 31.0 °F 30.4 in NNW 6 mph 7 mph 65% 0.000 in
11:49 42.0 °F 31.0 °F 30.4 in NNW 4 mph 8 mph 65% 0.000 in
11:54 42.0 °F 30.0 °F 30.4 in NNW 3 mph 4 mph 64% 0.000 in
11:59 42.0 °F 30.0 °F 30.4 in ENE 5 mph 5 mph 63% 0.000 in
12:04 42.0 °F 31.0 °F 30.4 in NW 2 mph 3 mph 64% 0.000 in
12:09 43.0 °F 31.0 °F 30.4 in NW 5 mph 6 mph 62% 0.000 in
12:14 43.0 °F 30.0 °F 30.4 in North 7 mph 10 mph 60% 0.000 in
12:19 43.0 °F 31.0 °F 30.4 in NW 5 mph 10 mph 61% 0.000 in
12:24 44.0 °F 30.0 °F 30.4 in NNE 4 mph 5 mph 59% 0.000 in
12:29 44.0 °F 31.0 °F 30.4 in NW 4 mph 7 mph 60% 0.000 in
12:34 44.0 °F 32.0 °F 30.4 in WNW 2 mph 3 mph 60% 0.000 in
12:39 45.0 °F 31.0 °F 30.4 in North 3 mph 3 mph 58% 0.000 in
12:44 45.0 °F 32.0 °F 30.4 in NW 1 mph 4 mph 60% 0.000 in
12:49 45.0 °F 32.0 °F 30.4 in North 4 mph 5 mph 59% 0.000 in
12:54 46.0 °F 31.0 °F 30.4 in NNW 3 mph 4 mph 56% 0.000 in
12:59 46.0 °F 31.0 °F 30.4 in North 3 mph 5 mph 56% 0.000 in
13:04 46.0 °F 32.0 °F 30.4 in NNW 1 mph 4 mph 58% 0.000 in
13:09 47.0 °F 32.0 °F 30.4 in NNW 2 mph 4 mph 58% 0.000 in
13:14 47.0 °F 32.0 °F 30.4 in WNW 1 mph 4 mph 57% 0.000 in
13:19 47.0 °F 34.0 °F 30.4 in WNW 1 mph 2 mph 60% 0.000 in
13:24 47.0 °F 33.0 °F 30.4 in WNW 4 mph 4 mph 58% 0.000 in
13:29 48.0 °F 34.0 °F 30.4 in WNW 4 mph 4 mph 60% 0.000 in
13:34 48.0 °F 33.0 °F 30.4 in NW 4 mph 5 mph 56% 0.000 in
13:39 48.0 °F 33.0 °F 30.4 in SSW 4 mph 4 mph 55% 0.000 in
13:44 49.0 °F 32.0 °F 30.4 in NW 3 mph 4 mph 53% 0.000 in
13:49 49.0 °F 32.0 °F 30.4 in NNW 4 mph 5 mph 52% 0.000 in
13:54 49.0 °F 32.0 °F 30.4 in NW 6 mph 7 mph 51% 0.000 in
13:59 49.0 °F 30.0 °F 30.4 in NNW 4 mph 5 mph 48% 0.000 in
14:04 49.0 °F 31.0 °F 30.4 in WNW 8 mph 8 mph 50% 0.000 in
14:09 49.0 °F 29.0 °F 30.4 in WNW 3 mph 8 mph 46% 0.000 in
14:14 49.0 °F 30.0 °F 30.4 in North 1 mph 4 mph 47% 0.000 in
14:19 49.0 °F 29.0 °F 30.4 in NNW 6 mph 6 mph 46% 0.000 in
14:24 49.0 °F 29.0 °F 30.4 in WNW 4 mph 6 mph 45% 0.000 in
14:29 50.0 °F 30.0 °F 30.4 in NNW 6 mph 7 mph 46% 0.000 in
14:34 50.0 °F 28.0 °F 30.4 in NNW 5 mph 7 mph 44% 0.000 in
14:39 50.0 °F 28.0 °F 30.4 in NW 6 mph 7 mph 43% 0.000 in
14:44 50.0 °F 28.0 °F 30.4 in NW 3 mph 3 mph 43% 0.000 in
14:49 50.0 °F 28.0 °F 30.4 in WNW 5 mph 9 mph 43% 0.000 in
14:54 50.0 °F 27.0 °F 30.4 in West 6 mph 7 mph 42% 0.000 in
14:59 49.0 °F 28.0 °F 30.4 in West 5 mph 6 mph 43% 0.000 in
15:04 49.0 °F 26.0 °F 30.4 in WNW 3 mph 5 mph 41% 0.000 in
15:09 49.0 °F 27.0 °F 30.4 in WNW 2 mph 3 mph 43% 0.000 in
15:14 49.0 °F 27.0 °F 30.4 in WNW 4 mph 4 mph 43% 0.000 in
15:19 49.0 °F 27.0 °F 30.4 in NW 5 mph 7 mph 43% 0.000 in
15:24 49.0 °F 27.0 °F 30.4 in NNW 3 mph 5 mph 43% 0.000 in
15:29 49.0 °F 29.0 °F 30.4 in NW 5 mph 7 mph 46% 0.000 in
15:34 49.0 °F 26.0 °F 30.4 in NNW 6 mph 8 mph 42% 0.000 in
15:39 48.0 °F 26.0 °F 30.4 in WNW 5 mph 10 mph 42% 0.000 in
15:44 48.0 °F 26.0 °F 30.4 in NNW 3 mph 5 mph 42% 0.000 in
15:49 48.0 °F 25.0 °F 30.4 in NW 6 mph 8 mph 40% 0.000 in
15:54 48.0 °F 26.0 °F 30.4 in WNW 4 mph 6 mph 41% 0.000 in
15:59 48.0 °F 27.0 °F 30.4 in WNW 6 mph 6 mph 44% 0.000 in
16:04 48.0 °F 27.0 °F 30.4 in NW 4 mph 5 mph 44% 0.000 in
16:09 48.0 °F 25.0 °F 30.4 in NW 6 mph 6 mph 41% 0.000 in
16:14 48.0 °F 27.0 °F 30.4 in North 1 mph 6 mph 44% 0.000 in
16:19 48.0 °F 26.0 °F 30.4 in NW 3 mph 6 mph 43% 0.000 in
16:24 48.0 °F 26.0 °F 30.4 in WNW 4 mph 6 mph 43% 0.000 in
16:29 48.0 °F 26.0 °F 30.4 in West 6 mph 6 mph 42% 0.000 in
16:34 47.0 °F 25.0 °F 30.4 in NNW 4 mph 5 mph 41% 0.000 in
16:39 47.0 °F 26.0 °F 30.4 in NW 5 mph 8 mph 43% 0.000 in
16:44 46.0 °F 28.0 °F 30.4 in NE 2 mph 4 mph 48% 0.000 in
16:49 46.0 °F 26.0 °F 30.4 in NNW 7 mph 7 mph 46% 0.000 in
16:54 46.0 °F 26.0 °F 30.4 in NNW 5 mph 6 mph 45% 0.000 in
16:59 46.0 °F 25.0 °F 30.4 in NW 3 mph 5 mph 44% 0.000 in
17:04 46.0 °F 24.0 °F 30.4 in WSW 2 mph 5 mph 43% 0.000 in
17:09 45.0 °F 24.0 °F 30.4 in NW 2 mph 6 mph 44% 0.000 in
17:14 45.0 °F 25.0 °F 30.4 in WNW 5 mph 6 mph 45% 0.000 in
17:19 45.0 °F 25.0 °F 30.4 in NW 6 mph 10 mph 45% 0.000 in
17:24 45.0 °F 26.0 °F 30.4 in West 3 mph 6 mph 47% 0.000 in
17:29 44.0 °F 25.0 °F 30.4 in NNW 2 mph 4 mph 47% 0.000 in
17:34 44.0 °F 26.0 °F 30.4 in WNW 1 mph 2 mph 48% 0.000 in
17:39 44.0 °F 24.0 °F 30.4 in NNW 2 mph 4 mph 45% 0.000 in
17:44 44.0 °F 26.0 °F 30.4 in NNE 1 mph 2 mph 49% 0.000 in
17:49 43.0 °F 24.0 °F 30.4 in NNW 2 mph 5 mph 47% 0.000 in
17:54 43.0 °F 26.0 °F 30.4 in NNW 3 mph 4 mph 50% 0.000 in
17:59 43.0 °F 25.0 °F 30.4 in WNW 3 mph 4 mph 48% 0.000 in
18:04 43.0 °F 26.0 °F 30.4 in WNW 5 mph 5 mph 52% 0.000 in
18:09 42.0 °F 25.0 °F 30.4 in West 4 mph 5 mph 51% 0.000 in
18:14 42.0 °F 26.0 °F 30.4 in WNW 3 mph 6 mph 52% 0.000 in
18:19 42.0 °F 26.0 °F 30.4 in Calm   3 mph 53% 0.000 in
18:24 41.0 °F 27.0 °F 30.4 in North 5 mph 5 mph 56% 0.000 in
18:29 41.0 °F 26.0 °F 30.4 in WNW 4 mph 5 mph 55% 0.000 in
18:34 41.0 °F 25.0 °F 30.4 in Calm   1 mph 54% 0.000 in
18:39 41.0 °F 25.0 °F 30.4 in WNW 1 mph 2 mph 54% 0.000 in
18:44 40.0 °F 25.0 °F 30.4 in Calm   1 mph 54% 0.000 in
18:49 40.0 °F 25.0 °F 30.5 in NW 4 mph 5 mph 54% 0.000 in
18:54 40.0 °F 23.0 °F 30.5 in NW 2 mph 5 mph 51% 0.000 in
18:59 39.0 °F 24.0 °F 30.5 in NW 3 mph 5 mph 53% 0.000 in
19:04 39.0 °F 22.0 °F 30.5 in North 1 mph 5 mph 50% 0.000 in
19:09 39.0 °F 22.0 °F 30.5 in North 1 mph 1 mph 50% 0.000 in
19:14 39.0 °F 21.0 °F 30.5 in NW 2 mph 3 mph 50% 0.000 in
19:19 38.0 °F 22.0 °F 30.5 in Calm   1 mph 52% 0.000 in
19:24 38.0 °F 23.0 °F 30.5 in NW 1 mph 2 mph 54% 0.000 in
19:29 38.0 °F 23.0 °F 30.5 in NW 2 mph 2 mph 54% 0.000 in
19:34 37.0 °F 22.0 °F 30.5 in NW 4 mph 4 mph 53% 0.000 in
19:39 37.0 °F 23.0 °F 30.5 in NW 2 mph 4 mph 55% 0.000 in
19:44 37.0 °F 23.0 °F 30.5 in WNW 3 mph 5 mph 56% 0.000 in
19:49 37.0 °F 23.0 °F 30.5 in NW 1 mph 2 mph 58% 0.000 in
19:54 37.0 °F 24.0 °F 30.5 in North 2 mph 3 mph 60% 0.000 in
19:59 36.0 °F 23.0 °F 30.5 in NNW 3 mph 5 mph 58% 0.000 in
20:04 36.0 °F 23.0 °F 30.5 in NNW 6 mph 9 mph 59% 0.000 in
20:09 36.0 °F 23.0 °F 30.5 in North 4 mph 9 mph 58% 0.000 in
20:14 36.0 °F 22.0 °F 30.5 in North 5 mph 7 mph 57% 0.000 in
20:19 36.0 °F 21.0 °F 30.5 in NNW 4 mph 7 mph 54% 0.000 in
20:24 36.0 °F 22.0 °F 30.5 in NNW 3 mph 5 mph 56% 0.000 in
20:29 36.0 °F 22.0 °F 30.5 in NNW 3 mph 4 mph 56% 0.000 in
20:34 36.0 °F 21.0 °F 30.5 in NW 4 mph 7 mph 55% 0.000 in
20:39 35.0 °F 22.0 °F 30.5 in NNW 3 mph 7 mph 57% 0.000 in
20:44 35.0 °F 21.0 °F 30.5 in NW 4 mph 8 mph 56% 0.000 in
20:49 35.0 °F 20.0 °F 30.5 in NW 6 mph 8 mph 54% 0.000 in
20:54 35.0 °F 20.0 °F 30.5 in NNW 4 mph 6 mph 54% 0.000 in
20:59 35.0 °F 21.0 °F 30.5 in ENE 2 mph 5 mph 56% 0.000 in
21:04 35.0 °F 21.0 °F 30.5 in NE 1 mph 1 mph 57% 0.000 in
21:09 35.0 °F 22.0 °F 30.5 in Calm   1 mph 60% 0.000 in
21:14 35.0 °F 22.0 °F 30.5 in Calm     60% 0.000 in
21:19 35.0 °F 22.0 °F 30.5 in NE 2 mph 2 mph 61% 0.000 in
21:24 34.0 °F 21.0 °F 30.5 in NE 1 mph 1 mph 59% 0.000 in
21:29 34.0 °F 22.0 °F 30.5 in North 2 mph 3 mph 60% 0.000 in
21:34 34.0 °F 22.0 °F 30.5 in Calm     61% 0.000 in
21:39 34.0 °F 22.0 °F 30.5 in NNE 1 mph 2 mph 61% 0.000 in
21:44 34.0 °F 23.0 °F 30.5 in NNE 1 mph 2 mph 64% 0.000 in
21:49 34.0 °F 24.0 °F 30.5 in NNE 2 mph 3 mph 66% 0.000 in
21:54 33.0 °F 23.0 °F 30.5 in North 3 mph 3 mph 66% 0.000 in
21:59 33.0 °F 23.0 °F 30.5 in NW 3 mph 4 mph 64% 0.000 in
22:04 33.0 °F 22.0 °F 30.5 in NNW 1 mph 2 mph 63% 0.000 in
22:09 33.0 °F 23.0 °F 30.5 in NNW 1 mph 1 mph 65% 0.000 in
22:14 33.0 °F 23.0 °F 30.5 in Calm     66% 0.000 in
22:19 33.0 °F 23.0 °F 30.5 in Calm     65% 0.000 in
22:24 33.0 °F 22.0 °F 30.5 in Calm     63% 0.000 in
22:29 33.0 °F 22.0 °F 30.5 in Calm     64% 0.000 in
22:34 33.0 °F 22.0 °F 30.5 in Calm     64% 0.000 in
22:39 32.0 °F 22.0 °F 30.5 in Calm     67% 0.000 in
22:44 32.0 °F 22.0 °F 30.5 in Calm     67% 0.000 in
22:49 32.0 °F 23.0 °F 30.5 in Calm     70% 0.000 in
22:54 31.0 °F 23.0 °F 30.5 in Calm     70% 0.000 in
22:59 31.0 °F 23.0 °F 30.5 in Calm     71% 0.000 in
23:04 31.0 °F 23.0 °F 30.5 in Calm     72% 0.000 in
23:09 30.0 °F 22.0 °F 30.5 in Calm     72% 0.000 in
23:14 30.0 °F 22.0 °F 30.5 in Calm     73% 0.000 in
23:19 30.0 °F 23.0 °F 30.5 in Calm     74% 0.000 in
23:24 30.0 °F 23.0 °F 30.5 in Calm     75% 0.000 in
23:29 29.0 °F 22.0 °F 30.5 in Calm     74% 0.000 in
23:34 29.0 °F 22.0 °F 30.5 in Calm     74% 0.000 in
23:39 29.0 °F 22.0 °F 30.5 in Calm     76% 0.000 in
23:44 29.0 °F 22.0 °F 30.5 in Calm     77% 0.000 in
23:49 29.0 °F 23.0 °F 30.5 in Calm     78% 0.000 in
23:54 28.0 °F 23.0 °F 30.5 in Calm     79% 0.000 in
23:59 28.0 °F 23.0 °F 30.5 in Calm     79% 0.000 in
East Ellijay Weather
Compliments of Weather Underground - 2 mb